Crew | Aerofun Virtual



 METAR AND TAF INFORMATION
METAR FOR LEVT
ADDS - METARS form results

(0458 UTC 20 May 2019)
Data provider http://aviationweather.gov/metar/data/
 
METAR text: LEVT 200430Z 00000KT 9999 FEW027 02/01 Q1015
Conditions at: LEVT (VITORIA , ES) observed 0430 UTC 20 May 2019
Temperature: 2.0°C (36°F)
Dewpoint: 1.0°C (34°F) [RH = 93%]
Pressure (altimeter): 29.97 inches Hg (1015.0 mb)
Winds: calm
Visibility: 6 or more miles (10+ km)
Ceiling: at least 12,000 feet AGL
Clouds: few clouds at 2700 feet AGL
Weather: no significant weather observed at this time

METAR text: LEVT 200400Z 00000KT 9999 FEW027 02/02 Q1015
Conditions at: LEVT (VITORIA , ES) observed 0400 UTC 20 May 2019
Temperature: 2.0°C (36°F)
Dewpoint: 2.0°C (36°F) [RH = 100%]
Pressure (altimeter): 29.97 inches Hg (1015.0 mb)
Winds: calm
Visibility: 6 or more miles (10+ km)
Ceiling: at least 12,000 feet AGL
Clouds: few clouds at 2700 feet AGL
Weather: no significant weather observed at this time

Forecast for: LEVT (VITORIA , ES)
Text: TAF LEVT 192300Z 2000/2024 VRB05KT 9999 SCT018 BKN030 TX15/2015Z TN04/2006Z
Forecast period: 0000 UTC 20 May 2019 to 0000 UTC 21 May 2019
Forecast type: FROM: standard forecast or significant change
Winds: variable direction winds at 6 MPH (5 knots; 2.6 m/s)
Visibility: 6 or more miles 10+ km)
Ceiling: 3000 feet AGL
Clouds: scattered clouds at 1800 feet AGL
broken clouds at 3000 feet AGL
Weather: no significant weather forecast for this period
Text: PROB40
Forecast period: 0000 to 0800 UTC 20 May 2019
Forecast type: TEMPORARY: The following changes expected for less than half the time period
Visibility: 1.86 miles (2.99 km)
Ceiling: 1000 feet AGL
Clouds: broken clouds at 1000 feet AGL
Weather: BR  (mist)
Text: TEMPO 2000/2008 3000 BR BKN010
Forecast period: 0000 to 0800 UTC 20 May 2019
Forecast type: TEMPORARY: The following changes expected for less than half the time period
Visibility: 0.93 miles (1.50 km)
Ceiling: 500 feet AGL
Clouds: broken clouds at 500 feet AGL
Weather: BCFG  (patches of fog)
Text: PROB30
Forecast period: 1200 to 1800 UTC 20 May 2019
Forecast type: TEMPORARY: The following changes expected for less than half the time period
Winds: from the NNE (30 degrees) at 12 MPH (10 knots; 5.1 m/s)
Visibility: missing
Ceiling: unknown
Clouds: missing
Weather: no significant weather forecast for this period

 AIRPORT MAP

 RUNWAY INFORMATION
Runway 04 Runway length 11483 ft Runway width 148 ft
Runway elevation 1651 ft Runway displaced threshold 0 ft Runway heading 36
Runway 22 Runway length 11483 ft Runway width 148 ft
Runway elevation 1682 ft Runway displaced threshold 0 ft Runway heading 216

 AIRPORT FREQUENCIES
Type GND Name GND Frequency 121.8 MHZ
Type TWR Name TWR Frequency 118.45 MHZ

 AIRPORT NEAR NAVIGATION AIDS
Type VOR-DME Name Vitoria Frequency 112900 KHZ
Type VOR-DME Name Vitoria Frequency 116600 KHZ